sensor_id;sensor_type;location;lat;lon;timestamp;P1;durP1;ratioP1;P2;durP2;ratioP2
19800;SDS011;10060;48.274;12.214;2022-09-27T00:01:26;3.13;;;2.67;;
19800;SDS011;10060;48.274;12.214;2022-09-27T00:04:28;2.77;;;2.30;;
19800;SDS011;10060;48.274;12.214;2022-09-27T00:07:30;4.93;;;2.43;;
19800;SDS011;10060;48.274;12.214;2022-09-27T00:10:33;2.93;;;2.57;;
19800;SDS011;10060;48.274;12.214;2022-09-27T00:13:39;2.93;;;2.40;;
19800;SDS011;10060;48.274;12.214;2022-09-27T00:16:43;4.67;;;2.50;;
19800;SDS011;10060;48.274;12.214;2022-09-27T00:19:45;3.20;;;2.43;;
19800;SDS011;10060;48.274;12.214;2022-09-27T00:22:47;3.10;;;2.50;;
19800;SDS011;10060;48.274;12.214;2022-09-27T00:25:53;2.37;;;2.17;;
19800;SDS011;10060;48.274;12.214;2022-09-27T00:28:56;4.27;;;2.33;;
19800;SDS011;10060;48.274;12.214;2022-09-27T00:31:59;4.50;;;2.50;;
19800;SDS011;10060;48.274;12.214;2022-09-27T00:35:02;4.47;;;2.80;;
19800;SDS011;10060;48.274;12.214;2022-09-27T00:38:04;2.80;;;2.27;;
19800;SDS011;10060;48.274;12.214;2022-09-27T00:41:07;4.50;;;2.70;;
19800;SDS011;10060;48.274;12.214;2022-09-27T00:47:41;2.93;;;2.30;;
19800;SDS011;10060;48.274;12.214;2022-09-27T00:50:44;5.03;;;2.30;;
19800;SDS011;10060;48.274;12.214;2022-09-27T00:53:49;2.80;;;2.30;;
19800;SDS011;10060;48.274;12.214;2022-09-27T00:56:52;2.63;;;2.33;;
19800;SDS011;10060;48.274;12.214;2022-09-27T00:59:56;3.10;;;2.40;;
19800;SDS011;10060;48.274;12.214;2022-09-27T01:03:01;3.00;;;2.40;;
19800;SDS011;10060;48.274;12.214;2022-09-27T01:06:07;4.47;;;2.60;;
19800;SDS011;10060;48.274;12.214;2022-09-27T01:09:09;2.80;;;2.40;;
19800;SDS011;10060;48.274;12.214;2022-09-27T01:12:15;4.13;;;2.63;;
19800;SDS011;10060;48.274;12.214;2022-09-27T01:15:22;5.00;;;2.17;;
19800;SDS011;10060;48.274;12.214;2022-09-27T01:18:29;3.13;;;2.20;;
19800;SDS011;10060;48.274;12.214;2022-09-27T01:21:44;7.13;;;2.93;;
19800;SDS011;10060;48.274;12.214;2022-09-27T01:25:01;6.20;;;3.60;;
19800;SDS011;10060;48.274;12.214;2022-09-27T01:28:11;6.27;;;2.73;;
19800;SDS011;10060;48.274;12.214;2022-09-27T01:31:18;3.47;;;2.90;;
19800;SDS011;10060;48.274;12.214;2022-09-27T01:34:24;4.93;;;3.40;;
19800;SDS011;10060;48.274;12.214;2022-09-27T01:37:29;5.07;;;3.53;;
19800;SDS011;10060;48.274;12.214;2022-09-27T01:40:37;8.00;;;3.93;;
19800;SDS011;10060;48.274;12.214;2022-09-27T01:43:41;4.93;;;2.83;;
19800;SDS011;10060;48.274;12.214;2022-09-27T01:46:47;6.10;;;3.20;;
19800;SDS011;10060;48.274;12.214;2022-09-27T01:49:52;4.90;;;3.23;;
19800;SDS011;10060;48.274;12.214;2022-09-27T01:52:57;6.80;;;3.30;;
19800;SDS011;10060;48.274;12.214;2022-09-27T01:56:01;3.37;;;2.87;;
19800;SDS011;10060;48.274;12.214;2022-09-27T01:59:07;3.73;;;2.80;;
19800;SDS011;10060;48.274;12.214;2022-09-27T02:02:11;5.73;;;3.47;;
19800;SDS011;10060;48.274;12.214;2022-09-27T02:05:16;4.13;;;3.20;;
19800;SDS011;10060;48.274;12.214;2022-09-27T02:08:21;5.10;;;3.43;;
19800;SDS011;10060;48.274;12.214;2022-09-27T02:11:23;4.43;;;3.47;;
19800;SDS011;10060;48.274;12.214;2022-09-27T02:14:26;5.13;;;3.33;;
19800;SDS011;10060;48.274;12.214;2022-09-27T02:17:36;4.53;;;3.40;;
19800;SDS011;10060;48.274;12.214;2022-09-27T02:20:43;4.20;;;3.13;;
19800;SDS011;10060;48.274;12.214;2022-09-27T02:23:47;2.73;;;2.40;;
19800;SDS011;10060;48.274;12.214;2022-09-27T02:26:53;4.80;;;2.97;;
19800;SDS011;10060;48.274;12.214;2022-09-27T02:30:00;2.90;;;2.57;;
19800;SDS011;10060;48.274;12.214;2022-09-27T02:33:04;3.33;;;2.50;;
19800;SDS011;10060;48.274;12.214;2022-09-27T02:36:07;4.87;;;2.87;;
19800;SDS011;10060;48.274;12.214;2022-09-27T02:39:09;3.30;;;2.77;;
19800;SDS011;10060;48.274;12.214;2022-09-27T02:42:11;3.10;;;2.53;;
19800;SDS011;10060;48.274;12.214;2022-09-27T02:45:14;4.17;;;2.77;;
19800;SDS011;10060;48.274;12.214;2022-09-27T02:48:20;4.13;;;3.20;;
19800;SDS011;10060;48.274;12.214;2022-09-27T02:51:29;3.30;;;2.70;;
19800;SDS011;10060;48.274;12.214;2022-09-27T02:54:37;3.50;;;2.37;;
19800;SDS011;10060;48.274;12.214;2022-09-27T02:57:45;3.20;;;2.77;;
19800;SDS011;10060;48.274;12.214;2022-09-27T03:00:51;3.07;;;2.63;;
19800;SDS011;10060;48.274;12.214;2022-09-27T03:03:57;3.80;;;2.70;;
19800;SDS011;10060;48.274;12.214;2022-09-27T03:07:00;3.30;;;2.53;;
19800;SDS011;10060;48.274;12.214;2022-09-27T03:10:03;3.13;;;2.70;;
19800;SDS011;10060;48.274;12.214;2022-09-27T03:13:05;2.97;;;2.67;;
19800;SDS011;10060;48.274;12.214;2022-09-27T03:16:08;2.67;;;2.43;;
19800;SDS011;10060;48.274;12.214;2022-09-27T03:19:12;4.77;;;2.73;;
19800;SDS011;10060;48.274;12.214;2022-09-27T03:22:14;3.10;;;2.43;;
19800;SDS011;10060;48.274;12.214;2022-09-27T03:25:16;3.97;;;2.90;;
19800;SDS011;10060;48.274;12.214;2022-09-27T03:28:20;5.40;;;2.80;;
19800;SDS011;10060;48.274;12.214;2022-09-27T03:31:23;3.73;;;2.80;;
19800;SDS011;10060;48.274;12.214;2022-09-27T03:34:26;4.13;;;3.33;;
19800;SDS011;10060;48.274;12.214;2022-09-27T03:37:29;3.60;;;3.13;;
19800;SDS011;10060;48.274;12.214;2022-09-27T03:40:31;6.40;;;3.13;;
19800;SDS011;10060;48.274;12.214;2022-09-27T03:43:33;4.30;;;3.30;;
19800;SDS011;10060;48.274;12.214;2022-09-27T03:46:35;5.17;;;3.70;;
19800;SDS011;10060;48.274;12.214;2022-09-27T03:49:39;3.70;;;2.80;;
19800;SDS011;10060;48.274;12.214;2022-09-27T03:52:41;5.57;;;3.27;;
19800;SDS011;10060;48.274;12.214;2022-09-27T03:55:44;3.83;;;3.10;;
19800;SDS011;10060;48.274;12.214;2022-09-27T03:58:47;3.60;;;2.80;;
19800;SDS011;10060;48.274;12.214;2022-09-27T04:01:49;3.63;;;3.03;;
19800;SDS011;10060;48.274;12.214;2022-09-27T04:04:52;5.07;;;3.83;;
19800;SDS011;10060;48.274;12.214;2022-09-27T04:07:55;5.17;;;3.33;;
19800;SDS011;10060;48.274;12.214;2022-09-27T04:10:57;5.17;;;3.90;;
19800;SDS011;10060;48.274;12.214;2022-09-27T04:13:59;6.47;;;4.47;;
19800;SDS011;10060;48.274;12.214;2022-09-27T04:17:01;4.23;;;3.73;;
19800;SDS011;10060;48.274;12.214;2022-09-27T04:20:05;4.40;;;3.80;;
19800;SDS011;10060;48.274;12.214;2022-09-27T04:23:07;4.83;;;3.10;;
19800;SDS011;10060;48.274;12.214;2022-09-27T04:26:10;5.57;;;3.73;;
19800;SDS011;10060;48.274;12.214;2022-09-27T04:29:12;3.77;;;3.30;;
19800;SDS011;10060;48.274;12.214;2022-09-27T04:32:15;6.33;;;3.70;;
19800;SDS011;10060;48.274;12.214;2022-09-27T04:35:19;6.83;;;3.60;;
19800;SDS011;10060;48.274;12.214;2022-09-27T04:38:39;3.93;;;3.40;;
19800;SDS011;10060;48.274;12.214;2022-09-27T04:41:41;5.53;;;3.50;;
19800;SDS011;10060;48.274;12.214;2022-09-27T04:44:44;6.90;;;3.57;;
19800;SDS011;10060;48.274;12.214;2022-09-27T04:47:47;4.73;;;3.47;;
19800;SDS011;10060;48.274;12.214;2022-09-27T04:50:55;3.93;;;3.37;;
19800;SDS011;10060;48.274;12.214;2022-09-27T04:53:58;5.87;;;3.33;;
19800;SDS011;10060;48.274;12.214;2022-09-27T04:57:00;3.73;;;3.20;;
19800;SDS011;10060;48.274;12.214;2022-09-27T05:00:03;5.57;;;3.47;;
19800;SDS011;10060;48.274;12.214;2022-09-27T05:03:05;6.80;;;3.63;;
19800;SDS011;10060;48.274;12.214;2022-09-27T05:06:09;6.50;;;3.43;;
19800;SDS011;10060;48.274;12.214;2022-09-27T05:09:11;4.00;;;3.60;;
19800;SDS011;10060;48.274;12.214;2022-09-27T05:12:13;3.23;;;2.93;;
19800;SDS011;10060;48.274;12.214;2022-09-27T05:15:15;3.40;;;3.10;;
19800;SDS011;10060;48.274;12.214;2022-09-27T05:18:18;4.27;;;2.97;;
19800;SDS011;10060;48.274;12.214;2022-09-27T05:21:21;4.70;;;2.97;;
19800;SDS011;10060;48.274;12.214;2022-09-27T05:24:23;3.53;;;2.80;;
19800;SDS011;10060;48.274;12.214;2022-09-27T05:27:27;3.53;;;2.80;;
19800;SDS011;10060;48.274;12.214;2022-09-27T05:30:30;4.37;;;2.90;;
19800;SDS011;10060;48.274;12.214;2022-09-27T05:33:32;3.73;;;3.20;;
19800;SDS011;10060;48.274;12.214;2022-09-27T05:36:35;3.43;;;3.13;;
19800;SDS011;10060;48.274;12.214;2022-09-27T05:39:37;3.83;;;3.23;;
19800;SDS011;10060;48.274;12.214;2022-09-27T05:42:40;4.47;;;3.30;;
19800;SDS011;10060;48.274;12.214;2022-09-27T05:45:42;4.43;;;2.97;;
19800;SDS011;10060;48.274;12.214;2022-09-27T05:48:44;4.17;;;2.90;;
19800;SDS011;10060;48.274;12.214;2022-09-27T05:51:47;4.77;;;3.00;;
19800;SDS011;10060;48.274;12.214;2022-09-27T05:54:49;3.43;;;2.67;;
19800;SDS011;10060;48.274;12.214;2022-09-27T05:57:55;3.30;;;3.00;;
19800;SDS011;10060;48.274;12.214;2022-09-27T06:00:58;3.43;;;2.80;;
19800;SDS011;10060;48.274;12.214;2022-09-27T06:04:00;3.20;;;2.73;;
19800;SDS011;10060;48.274;12.214;2022-09-27T06:07:05;5.80;;;2.57;;
19800;SDS011;10060;48.274;12.214;2022-09-27T06:10:07;2.53;;;2.33;;
19800;SDS011;10060;48.274;12.214;2022-09-27T06:13:10;2.40;;;2.20;;
19800;SDS011;10060;48.274;12.214;2022-09-27T06:16:12;6.13;;;2.80;;
19800;SDS011;10060;48.274;12.214;2022-09-27T06:19:14;2.30;;;2.10;;
19800;SDS011;10060;48.274;12.214;2022-09-27T06:22:18;2.37;;;2.17;;
19800;SDS011;10060;48.274;12.214;2022-09-27T06:25:20;6.30;;;2.33;;
19800;SDS011;10060;48.274;12.214;2022-09-27T06:28:22;2.53;;;1.97;;
19800;SDS011;10060;48.274;12.214;2022-09-27T06:31:25;4.13;;;2.90;;
19800;SDS011;10060;48.274;12.214;2022-09-27T06:34:27;2.47;;;2.27;;
19800;SDS011;10060;48.274;12.214;2022-09-27T06:37:33;2.30;;;2.10;;
19800;SDS011;10060;48.274;12.214;2022-09-27T06:40:35;3.57;;;2.37;;
19800;SDS011;10060;48.274;12.214;2022-09-27T06:43:37;2.40;;;2.00;;
19800;SDS011;10060;48.274;12.214;2022-09-27T06:46:39;2.20;;;2.00;;
19800;SDS011;10060;48.274;12.214;2022-09-27T06:49:41;3.60;;;2.13;;
19800;SDS011;10060;48.274;12.214;2022-09-27T06:52:48;2.40;;;1.80;;
19800;SDS011;10060;48.274;12.214;2022-09-27T06:55:50;1.83;;;1.50;;
19800;SDS011;10060;48.274;12.214;2022-09-27T06:58:52;2.17;;;1.80;;
19800;SDS011;10060;48.274;12.214;2022-09-27T07:02:12;2.73;;;1.53;;
19800;SDS011;10060;48.274;12.214;2022-09-27T07:05:14;2.23;;;1.30;;
19800;SDS011;10060;48.274;12.214;2022-09-27T07:08:18;2.27;;;1.30;;
19800;SDS011;10060;48.274;12.214;2022-09-27T07:11:20;1.50;;;1.40;;
19800;SDS011;10060;48.274;12.214;2022-09-27T07:14:22;3.10;;;1.40;;
19800;SDS011;10060;48.274;12.214;2022-09-27T07:17:26;2.10;;;1.50;;
19800;SDS011;10060;48.274;12.214;2022-09-27T07:20:28;1.93;;;1.30;;
19800;SDS011;10060;48.274;12.214;2022-09-27T07:23:32;1.80;;;1.70;;
19800;SDS011;10060;48.274;12.214;2022-09-27T07:26:34;1.50;;;1.40;;
19800;SDS011;10060;48.274;12.214;2022-09-27T07:29:37;1.40;;;1.30;;
19800;SDS011;10060;48.274;12.214;2022-09-27T07:32:39;2.63;;;1.60;;
19800;SDS011;10060;48.274;12.214;2022-09-27T07:35:41;1.97;;;1.47;;
19800;SDS011;10060;48.274;12.214;2022-09-27T07:38:45;2.30;;;1.43;;
19800;SDS011;10060;48.274;12.214;2022-09-27T07:41:47;2.60;;;1.70;;
19800;SDS011;10060;48.274;12.214;2022-09-27T07:44:49;3.57;;;1.40;;
19800;SDS011;10060;48.274;12.214;2022-09-27T07:47:51;2.03;;;1.43;;
19800;SDS011;10060;48.274;12.214;2022-09-27T07:50:53;1.60;;;1.50;;
19800;SDS011;10060;48.274;12.214;2022-09-27T07:53:57;3.93;;;1.30;;
19800;SDS011;10060;48.274;12.214;2022-09-27T07:57:00;2.33;;;1.43;;
19800;SDS011;10060;48.274;12.214;2022-09-27T08:00:02;2.53;;;1.30;;
19800;SDS011;10060;48.274;12.214;2022-09-27T08:03:05;1.90;;;1.50;;
19800;SDS011;10060;48.274;12.214;2022-09-27T08:06:07;2.20;;;1.60;;
19800;SDS011;10060;48.274;12.214;2022-09-27T08:09:10;3.90;;;1.70;;
19800;SDS011;10060;48.274;12.214;2022-09-27T08:12:12;1.87;;;1.57;;
19800;SDS011;10060;48.274;12.214;2022-09-27T08:15:15;1.50;;;1.20;;
19800;SDS011;10060;48.274;12.214;2022-09-27T08:18:17;1.63;;;1.40;;
19800;SDS011;10060;48.274;12.214;2022-09-27T08:21:21;1.50;;;1.40;;
19800;SDS011;10060;48.274;12.214;2022-09-27T08:24:24;3.77;;;1.33;;
19800;SDS011;10060;48.274;12.214;2022-09-27T08:27:26;3.40;;;1.70;;
19800;SDS011;10060;48.274;12.214;2022-09-27T08:30:29;1.93;;;1.40;;
19800;SDS011;10060;48.274;12.214;2022-09-27T08:33:31;3.90;;;1.30;;
19800;SDS011;10060;48.274;12.214;2022-09-27T08:36:33;2.80;;;1.47;;
19800;SDS011;10060;48.274;12.214;2022-09-27T08:39:37;3.30;;;1.57;;
19800;SDS011;10060;48.274;12.214;2022-09-27T08:42:41;4.13;;;1.77;;
19800;SDS011;10060;48.274;12.214;2022-09-27T08:45:52;4.17;;;2.00;;
19800;SDS011;10060;48.274;12.214;2022-09-27T08:48:57;2.63;;;2.23;;
19800;SDS011;10060;48.274;12.214;2022-09-27T08:52:00;1.73;;;1.10;;
19800;SDS011;10060;48.274;12.214;2022-09-27T08:55:09;1.20;;;1.10;;
19800;SDS011;10060;48.274;12.214;2022-09-27T08:58:19;1.23;;;1.07;;
19800;SDS011;10060;48.274;12.214;2022-09-27T09:01:24;0.90;;;0.90;;
19800;SDS011;10060;48.274;12.214;2022-09-27T09:04:28;1.33;;;1.00;;
19800;SDS011;10060;48.274;12.214;2022-09-27T09:07:46;1.10;;;1.03;;
19800;SDS011;10060;48.274;12.214;2022-09-27T09:10:56;1.00;;;1.00;;
19800;SDS011;10060;48.274;12.214;2022-09-27T09:17:51;2.43;;;1.20;;
19800;SDS011;10060;48.274;12.214;2022-09-27T09:20:57;2.70;;;1.30;;
19800;SDS011;10060;48.274;12.214;2022-09-27T09:24:11;2.43;;;1.20;;
19800;SDS011;10060;48.274;12.214;2022-09-27T09:27:20;1.10;;;1.00;;
19800;SDS011;10060;48.274;12.214;2022-09-27T09:30:27;1.00;;;1.00;;
19800;SDS011;10060;48.274;12.214;2022-09-27T09:33:32;1.30;;;1.20;;
19800;SDS011;10060;48.274;12.214;2022-09-27T09:36:37;0.80;;;0.80;;
19800;SDS011;10060;48.274;12.214;2022-09-27T09:39:42;1.30;;;1.17;;
19800;SDS011;10060;48.274;12.214;2022-09-27T09:42:47;1.37;;;1.27;;
19800;SDS011;10060;48.274;12.214;2022-09-27T09:45:52;1.20;;;1.10;;
19800;SDS011;10060;48.274;12.214;2022-09-27T09:48:56;1.10;;;1.10;;
19800;SDS011;10060;48.274;12.214;2022-09-27T09:52:04;1.20;;;1.10;;
19800;SDS011;10060;48.274;12.214;2022-09-27T09:55:12;1.37;;;1.27;;
19800;SDS011;10060;48.274;12.214;2022-09-27T09:58:21;1.90;;;1.00;;
19800;SDS011;10060;48.274;12.214;2022-09-27T10:01:25;1.20;;;1.00;;
19800;SDS011;10060;48.274;12.214;2022-09-27T10:04:28;1.03;;;1.00;;
19800;SDS011;10060;48.274;12.214;2022-09-27T10:07:32;1.00;;;1.00;;
19800;SDS011;10060;48.274;12.214;2022-09-27T10:10:35;2.17;;;1.20;;
19800;SDS011;10060;48.274;12.214;2022-09-27T10:13:38;1.40;;;1.00;;
19800;SDS011;10060;48.274;12.214;2022-09-27T10:16:41;1.47;;;1.13;;
19800;SDS011;10060;48.274;12.214;2022-09-27T10:19:46;1.07;;;1.07;;
19800;SDS011;10060;48.274;12.214;2022-09-27T10:22:48;1.37;;;1.07;;
19800;SDS011;10060;48.274;12.214;2022-09-27T10:25:54;1.20;;;1.10;;
19800;SDS011;10060;48.274;12.214;2022-09-27T10:28:59;1.13;;;1.07;;
19800;SDS011;10060;48.274;12.214;2022-09-27T10:32:18;1.30;;;1.00;;
19800;SDS011;10060;48.274;12.214;2022-09-27T10:35:32;1.30;;;1.20;;
19800;SDS011;10060;48.274;12.214;2022-09-27T10:38:35;1.53;;;1.10;;
19800;SDS011;10060;48.274;12.214;2022-09-27T10:41:38;1.63;;;1.10;;
19800;SDS011;10060;48.274;12.214;2022-09-27T10:44:42;1.30;;;1.20;;
19800;SDS011;10060;48.274;12.214;2022-09-27T10:47:44;1.10;;;1.10;;
19800;SDS011;10060;48.274;12.214;2022-09-27T10:50:53;1.07;;;1.07;;
19800;SDS011;10060;48.274;12.214;2022-09-27T10:53:57;1.47;;;1.07;;
19800;SDS011;10060;48.274;12.214;2022-09-27T10:57:01;1.00;;;1.00;;
19800;SDS011;10060;48.274;12.214;2022-09-27T11:00:07;2.50;;;1.10;;
19800;SDS011;10060;48.274;12.214;2022-09-27T11:03:21;1.10;;;1.10;;
19800;SDS011;10060;48.274;12.214;2022-09-27T11:06:27;1.47;;;1.23;;
19800;SDS011;10060;48.274;12.214;2022-09-27T11:09:29;1.30;;;1.07;;
19800;SDS011;10060;48.274;12.214;2022-09-27T11:12:31;3.50;;;1.30;;
19800;SDS011;10060;48.274;12.214;2022-09-27T11:15:39;1.37;;;1.27;;
19800;SDS011;10060;48.274;12.214;2022-09-27T11:18:46;0.90;;;0.90;;
19800;SDS011;10060;48.274;12.214;2022-09-27T11:21:51;1.50;;;1.00;;
19800;SDS011;10060;48.274;12.214;2022-09-27T11:25:01;1.00;;;0.97;;
19800;SDS011;10060;48.274;12.214;2022-09-27T11:28:07;1.17;;;0.90;;
19800;SDS011;10060;48.274;12.214;2022-09-27T11:31:14;1.10;;;1.00;;
19800;SDS011;10060;48.274;12.214;2022-09-27T11:34:28;1.10;;;1.00;;
19800;SDS011;10060;48.274;12.214;2022-09-27T11:37:35;0.97;;;0.93;;
19800;SDS011;10060;48.274;12.214;2022-09-27T11:40:44;2.13;;;0.90;;
19800;SDS011;10060;48.274;12.214;2022-09-27T11:43:52;0.97;;;0.97;;
19800;SDS011;10060;48.274;12.214;2022-09-27T11:46:59;1.00;;;1.00;;
19800;SDS011;10060;48.274;12.214;2022-09-27T11:50:17;1.00;;;0.90;;
19800;SDS011;10060;48.274;12.214;2022-09-27T11:53:28;1.20;;;1.10;;
19800;SDS011;10060;48.274;12.214;2022-09-27T11:56:35;1.20;;;1.10;;
19800;SDS011;10060;48.274;12.214;2022-09-27T12:00:00;2.43;;;1.30;;
19800;SDS011;10060;48.274;12.214;2022-09-27T12:03:14;2.43;;;1.10;;
19800;SDS011;10060;48.274;12.214;2022-09-27T12:06:20;2.40;;;1.27;;
19800;SDS011;10060;48.274;12.214;2022-09-27T12:09:27;3.03;;;1.40;;
19800;SDS011;10060;48.274;12.214;2022-09-27T12:12:31;0.90;;;0.90;;
19800;SDS011;10060;48.274;12.214;2022-09-27T12:15:35;1.20;;;1.10;;
19800;SDS011;10060;48.274;12.214;2022-09-27T12:18:41;1.07;;;1.03;;
19800;SDS011;10060;48.274;12.214;2022-09-27T12:21:45;2.63;;;1.10;;
19800;SDS011;10060;48.274;12.214;2022-09-27T12:24:47;1.33;;;1.23;;
19800;SDS011;10060;48.274;12.214;2022-09-27T12:27:51;1.40;;;1.30;;
19800;SDS011;10060;48.274;12.214;2022-09-27T12:30:56;1.50;;;1.30;;
19800;SDS011;10060;48.274;12.214;2022-09-27T12:34:03;2.43;;;1.20;;
19800;SDS011;10060;48.274;12.214;2022-09-27T12:37:09;1.50;;;1.40;;
19800;SDS011;10060;48.274;12.214;2022-09-27T12:40:14;1.60;;;1.30;;
19800;SDS011;10060;48.274;12.214;2022-09-27T12:43:18;1.60;;;1.50;;
19800;SDS011;10060;48.274;12.214;2022-09-27T12:46:25;3.23;;;1.80;;
19800;SDS011;10060;48.274;12.214;2022-09-27T12:49:35;2.73;;;1.83;;
19800;SDS011;10060;48.274;12.214;2022-09-27T12:52:42;1.20;;;1.20;;
19800;SDS011;10060;48.274;12.214;2022-09-27T12:59:20;1.30;;;1.20;;
19800;SDS011;10060;48.274;12.214;2022-09-27T13:05:54;1.20;;;1.20;;
19800;SDS011;10060;48.274;12.214;2022-09-27T13:09:15;1.27;;;1.17;;
19800;SDS011;10060;48.274;12.214;2022-09-27T13:12:19;1.43;;;1.33;;
19800;SDS011;10060;48.274;12.214;2022-09-27T13:15:24;1.13;;;1.10;;
19800;SDS011;10060;48.274;12.214;2022-09-27T13:18:29;4.07;;;1.33;;
19800;SDS011;10060;48.274;12.214;2022-09-27T13:24:53;1.40;;;1.30;;
19800;SDS011;10060;48.274;12.214;2022-09-27T13:27:55;1.40;;;1.30;;
19800;SDS011;10060;48.274;12.214;2022-09-27T13:30:58;1.30;;;1.20;;
19800;SDS011;10060;48.274;12.214;2022-09-27T13:34:00;1.50;;;1.40;;
19800;SDS011;10060;48.274;12.214;2022-09-27T13:43:46;4.53;;;1.27;;
19800;SDS011;10060;48.274;12.214;2022-09-27T13:46:51;1.30;;;1.20;;
19800;SDS011;10060;48.274;12.214;2022-09-27T13:49:56;3.00;;;2.43;;
19800;SDS011;10060;48.274;12.214;2022-09-27T13:53:02;2.30;;;1.40;;
19800;SDS011;10060;48.274;12.214;2022-09-27T13:56:08;2.53;;;1.50;;
19800;SDS011;10060;48.274;12.214;2022-09-27T13:59:31;2.33;;;1.40;;
19800;SDS011;10060;48.274;12.214;2022-09-27T14:02:35;1.57;;;1.47;;
19800;SDS011;10060;48.274;12.214;2022-09-27T14:05:39;2.40;;;1.83;;
19800;SDS011;10060;48.274;12.214;2022-09-27T14:08:42;2.03;;;1.43;;
19800;SDS011;10060;48.274;12.214;2022-09-27T14:11:47;1.50;;;1.33;;
19800;SDS011;10060;48.274;12.214;2022-09-27T14:14:53;1.83;;;1.50;;
19800;SDS011;10060;48.274;12.214;2022-09-27T14:17:56;2.07;;;1.40;;
19800;SDS011;10060;48.274;12.214;2022-09-27T14:21:07;1.87;;;1.33;;
19800;SDS011;10060;48.274;12.214;2022-09-27T14:24:20;3.10;;;1.60;;
19800;SDS011;10060;48.274;12.214;2022-09-27T14:27:23;1.83;;;1.50;;
19800;SDS011;10060;48.274;12.214;2022-09-27T14:30:27;1.60;;;1.50;;
19800;SDS011;10060;48.274;12.214;2022-09-27T14:33:31;1.40;;;1.30;;
19800;SDS011;10060;48.274;12.214;2022-09-27T14:36:33;2.23;;;1.60;;
19800;SDS011;10060;48.274;12.214;2022-09-27T14:39:54;1.70;;;1.60;;
19800;SDS011;10060;48.274;12.214;2022-09-27T14:42:57;1.93;;;1.63;;
19800;SDS011;10060;48.274;12.214;2022-09-27T14:46:02;1.77;;;1.67;;
19800;SDS011;10060;48.274;12.214;2022-09-27T14:49:10;1.80;;;1.70;;
19800;SDS011;10060;48.274;12.214;2022-09-27T14:52:15;2.47;;;1.60;;
19800;SDS011;10060;48.274;12.214;2022-09-27T14:55:18;2.03;;;1.83;;
19800;SDS011;10060;48.274;12.214;2022-09-27T14:58:21;1.60;;;1.50;;
19800;SDS011;10060;48.274;12.214;2022-09-27T15:01:25;3.33;;;1.73;;
19800;SDS011;10060;48.274;12.214;2022-09-27T15:04:28;2.10;;;1.60;;
19800;SDS011;10060;48.274;12.214;2022-09-27T15:07:31;1.83;;;1.40;;
19800;SDS011;10060;48.274;12.214;2022-09-27T15:10:34;3.37;;;1.50;;
19800;SDS011;10060;48.274;12.214;2022-09-27T15:13:36;1.53;;;1.37;;
19800;SDS011;10060;48.274;12.214;2022-09-27T15:16:41;1.30;;;1.20;;
19800;SDS011;10060;48.274;12.214;2022-09-27T15:19:54;1.93;;;1.00;;
19800;SDS011;10060;48.274;12.214;2022-09-27T15:22:57;1.97;;;1.00;;
19800;SDS011;10060;48.274;12.214;2022-09-27T15:26:02;1.13;;;1.03;;
19800;SDS011;10060;48.274;12.214;2022-09-27T15:29:14;2.73;;;1.20;;
19800;SDS011;10060;48.274;12.214;2022-09-27T15:32:20;1.83;;;1.10;;
19800;SDS011;10060;48.274;12.214;2022-09-27T15:35:24;1.53;;;1.20;;
19800;SDS011;10060;48.274;12.214;2022-09-27T15:38:27;1.13;;;1.03;;
19800;SDS011;10060;48.274;12.214;2022-09-27T15:41:30;2.87;;;1.10;;
19800;SDS011;10060;48.274;12.214;2022-09-27T15:44:53;1.67;;;1.47;;
19800;SDS011;10060;48.274;12.214;2022-09-27T15:48:02;1.90;;;1.10;;
19800;SDS011;10060;48.274;12.214;2022-09-27T15:51:37;1.27;;;1.00;;
19800;SDS011;10060;48.274;12.214;2022-09-27T15:54:39;1.50;;;1.20;;
19800;SDS011;10060;48.274;12.214;2022-09-27T15:57:42;2.40;;;1.00;;
19800;SDS011;10060;48.274;12.214;2022-09-27T16:00:52;1.30;;;1.20;;
19800;SDS011;10060;48.274;12.214;2022-09-27T16:03:56;1.27;;;1.10;;
19800;SDS011;10060;48.274;12.214;2022-09-27T16:06:59;1.30;;;1.20;;
19800;SDS011;10060;48.274;12.214;2022-09-27T16:10:04;3.20;;;1.30;;
19800;SDS011;10060;48.274;12.214;2022-09-27T16:13:10;2.40;;;1.43;;
19800;SDS011;10060;48.274;12.214;2022-09-27T16:16:14;1.50;;;1.40;;
19800;SDS011;10060;48.274;12.214;2022-09-27T16:19:17;2.23;;;1.40;;
19800;SDS011;10060;48.274;12.214;2022-09-27T16:22:19;2.90;;;1.30;;
19800;SDS011;10060;48.274;12.214;2022-09-27T16:25:21;3.73;;;1.23;;
19800;SDS011;10060;48.274;12.214;2022-09-27T16:28:23;2.57;;;1.27;;
19800;SDS011;10060;48.274;12.214;2022-09-27T16:31:27;1.63;;;1.53;;
19800;SDS011;10060;48.274;12.214;2022-09-27T16:34:29;2.13;;;1.70;;
19800;SDS011;10060;48.274;12.214;2022-09-27T16:37:32;4.10;;;1.60;;
19800;SDS011;10060;48.274;12.214;2022-09-27T16:40:34;1.00;;;1.00;;
19800;SDS011;10060;48.274;12.214;2022-09-27T16:43:36;1.43;;;1.13;;
19800;SDS011;10060;48.274;12.214;2022-09-27T16:46:40;2.10;;;1.40;;
19800;SDS011;10060;48.274;12.214;2022-09-27T16:49:45;1.77;;;1.00;;
19800;SDS011;10060;48.274;12.214;2022-09-27T16:53:04;1.97;;;1.33;;
19800;SDS011;10060;48.274;12.214;2022-09-27T16:56:06;2.37;;;1.50;;
19800;SDS011;10060;48.274;12.214;2022-09-27T16:59:08;2.23;;;1.50;;
19800;SDS011;10060;48.274;12.214;2022-09-27T17:02:12;1.70;;;1.60;;
19800;SDS011;10060;48.274;12.214;2022-09-27T17:05:14;1.83;;;1.70;;
19800;SDS011;10060;48.274;12.214;2022-09-27T17:08:19;2.20;;;1.53;;
19800;SDS011;10060;48.274;12.214;2022-09-27T17:11:21;1.50;;;1.40;;
19800;SDS011;10060;48.274;12.214;2022-09-27T17:14:23;1.50;;;1.40;;
19800;SDS011;10060;48.274;12.214;2022-09-27T17:17:27;1.70;;;1.60;;
19800;SDS011;10060;48.274;12.214;2022-09-27T17:20:29;2.03;;;1.57;;
19800;SDS011;10060;48.274;12.214;2022-09-27T17:23:32;2.10;;;1.30;;
19800;SDS011;10060;48.274;12.214;2022-09-27T17:26:35;1.60;;;1.50;;
19800;SDS011;10060;48.274;12.214;2022-09-27T17:29:37;4.20;;;1.40;;
19800;SDS011;10060;48.274;12.214;2022-09-27T17:32:40;8.83;;;5.20;;
19800;SDS011;10060;48.274;12.214;2022-09-27T17:35:42;14.57;;;7.47;;
19800;SDS011;10060;48.274;12.214;2022-09-27T17:38:47;4.33;;;2.23;;
19800;SDS011;10060;48.274;12.214;2022-09-27T17:41:50;1.30;;;1.20;;
19800;SDS011;10060;48.274;12.214;2022-09-27T17:44:52;1.50;;;1.40;;
19800;SDS011;10060;48.274;12.214;2022-09-27T17:47:55;3.70;;;1.40;;
19800;SDS011;10060;48.274;12.214;2022-09-27T17:51:15;1.10;;;1.10;;
19800;SDS011;10060;48.274;12.214;2022-09-27T17:54:18;1.37;;;1.27;;
19800;SDS011;10060;48.274;12.214;2022-09-27T17:57:21;2.10;;;1.43;;
19800;SDS011;10060;48.274;12.214;2022-09-27T18:00:23;1.53;;;1.43;;
19800;SDS011;10060;48.274;12.214;2022-09-27T18:03:27;1.10;;;1.10;;
19800;SDS011;10060;48.274;12.214;2022-09-27T18:06:29;1.50;;;1.40;;
19800;SDS011;10060;48.274;12.214;2022-09-27T18:09:31;1.20;;;1.20;;
19800;SDS011;10060;48.274;12.214;2022-09-27T18:12:33;2.47;;;1.43;;
19800;SDS011;10060;48.274;12.214;2022-09-27T18:15:36;1.40;;;1.30;;
19800;SDS011;10060;48.274;12.214;2022-09-27T18:18:39;1.67;;;1.57;;
19800;SDS011;10060;48.274;12.214;2022-09-27T18:21:43;1.60;;;1.50;;
19800;SDS011;10060;48.274;12.214;2022-09-27T18:24:45;2.33;;;1.70;;
19800;SDS011;10060;48.274;12.214;2022-09-27T18:27:47;3.10;;;1.90;;
19800;SDS011;10060;48.274;12.214;2022-09-27T18:30:50;2.53;;;2.23;;
19800;SDS011;10060;48.274;12.214;2022-09-27T18:33:53;2.83;;;2.00;;
19800;SDS011;10060;48.274;12.214;2022-09-27T18:36:56;4.50;;;2.07;;
19800;SDS011;10060;48.274;12.214;2022-09-27T18:39:58;4.03;;;2.20;;